sensor_id;sensor_type;location;lat;lon;timestamp;P1;durP1;ratioP1;P2;durP2;ratioP2
14373;SDS011;7270;49.004;12.066;2023-04-15T00:00:55;1.10;;;1.10;;
14373;SDS011;7270;49.004;12.066;2023-04-15T00:03:22;1.23;;;1.20;;
14373;SDS011;7270;49.004;12.066;2023-04-15T00:05:48;1.13;;;1.13;;
14373;SDS011;7270;49.004;12.066;2023-04-15T00:08:14;1.13;;;1.13;;
14373;SDS011;7270;49.004;12.066;2023-04-15T00:10:41;1.20;;;1.20;;
14373;SDS011;7270;49.004;12.066;2023-04-15T00:13:08;1.10;;;1.10;;
14373;SDS011;7270;49.004;12.066;2023-04-15T00:15:34;1.10;;;1.10;;
14373;SDS011;7270;49.004;12.066;2023-04-15T00:18:03;1.10;;;1.10;;
14373;SDS011;7270;49.004;12.066;2023-04-15T00:20:29;1.10;;;1.10;;
14373;SDS011;7270;49.004;12.066;2023-04-15T00:22:55;1.20;;;1.20;;
14373;SDS011;7270;49.004;12.066;2023-04-15T00:25:22;1.00;;;1.00;;
14373;SDS011;7270;49.004;12.066;2023-04-15T00:27:48;1.10;;;1.10;;
14373;SDS011;7270;49.004;12.066;2023-04-15T00:30:14;1.10;;;1.10;;
14373;SDS011;7270;49.004;12.066;2023-04-15T00:32:41;0.97;;;0.97;;
14373;SDS011;7270;49.004;12.066;2023-04-15T00:35:08;1.20;;;1.20;;
14373;SDS011;7270;49.004;12.066;2023-04-15T00:37:35;1.10;;;1.10;;
14373;SDS011;7270;49.004;12.066;2023-04-15T00:40:01;1.10;;;1.10;;
14373;SDS011;7270;49.004;12.066;2023-04-15T00:42:29;1.10;;;1.10;;
14373;SDS011;7270;49.004;12.066;2023-04-15T00:44:55;1.10;;;1.10;;
14373;SDS011;7270;49.004;12.066;2023-04-15T00:47:21;1.20;;;1.20;;
14373;SDS011;7270;49.004;12.066;2023-04-15T00:49:48;1.17;;;1.17;;
14373;SDS011;7270;49.004;12.066;2023-04-15T00:52:15;1.10;;;1.10;;
14373;SDS011;7270;49.004;12.066;2023-04-15T00:54:42;1.10;;;1.10;;
14373;SDS011;7270;49.004;12.066;2023-04-15T00:57:08;1.10;;;1.10;;
14373;SDS011;7270;49.004;12.066;2023-04-15T00:59:34;1.00;;;1.00;;
14373;SDS011;7270;49.004;12.066;2023-04-15T01:02:01;1.10;;;1.10;;
14373;SDS011;7270;49.004;12.066;2023-04-15T01:04:27;1.10;;;1.10;;
14373;SDS011;7270;49.004;12.066;2023-04-15T01:06:53;1.20;;;1.20;;
14373;SDS011;7270;49.004;12.066;2023-04-15T01:09:21;1.17;;;1.17;;
14373;SDS011;7270;49.004;12.066;2023-04-15T01:11:47;1.10;;;1.10;;
14373;SDS011;7270;49.004;12.066;2023-04-15T01:14:14;1.10;;;1.10;;
14373;SDS011;7270;49.004;12.066;2023-04-15T01:16:40;1.17;;;1.17;;
14373;SDS011;7270;49.004;12.066;2023-04-15T01:19:06;1.10;;;1.10;;
14373;SDS011;7270;49.004;12.066;2023-04-15T01:21:35;1.10;;;1.10;;
14373;SDS011;7270;49.004;12.066;2023-04-15T01:24:01;1.10;;;1.10;;
14373;SDS011;7270;49.004;12.066;2023-04-15T01:26:32;1.10;;;1.10;;
14373;SDS011;7270;49.004;12.066;2023-04-15T01:28:58;1.10;;;1.10;;
14373;SDS011;7270;49.004;12.066;2023-04-15T01:31:24;1.00;;;1.00;;
14373;SDS011;7270;49.004;12.066;2023-04-15T01:33:51;1.10;;;1.10;;
14373;SDS011;7270;49.004;12.066;2023-04-15T01:36:17;1.20;;;1.20;;
14373;SDS011;7270;49.004;12.066;2023-04-15T01:38:44;1.23;;;1.20;;
14373;SDS011;7270;49.004;12.066;2023-04-15T01:41:10;1.10;;;1.10;;
14373;SDS011;7270;49.004;12.066;2023-04-15T01:43:38;1.13;;;1.13;;
14373;SDS011;7270;49.004;12.066;2023-04-15T01:46:04;1.10;;;1.10;;
14373;SDS011;7270;49.004;12.066;2023-04-15T01:48:31;1.30;;;1.20;;
14373;SDS011;7270;49.004;12.066;2023-04-15T01:50:57;1.10;;;1.10;;
14373;SDS011;7270;49.004;12.066;2023-04-15T01:53:24;1.10;;;1.10;;
14373;SDS011;7270;49.004;12.066;2023-04-15T01:55:50;1.00;;;1.00;;
14373;SDS011;7270;49.004;12.066;2023-04-15T01:58:17;1.10;;;1.10;;
14373;SDS011;7270;49.004;12.066;2023-04-15T02:00:45;1.10;;;1.10;;
14373;SDS011;7270;49.004;12.066;2023-04-15T02:03:11;1.10;;;1.10;;
14373;SDS011;7270;49.004;12.066;2023-04-15T02:05:37;1.03;;;1.03;;
14373;SDS011;7270;49.004;12.066;2023-04-15T02:08:03;1.10;;;1.10;;
14373;SDS011;7270;49.004;12.066;2023-04-15T02:10:30;1.03;;;1.03;;
14373;SDS011;7270;49.004;12.066;2023-04-15T02:12:56;1.00;;;1.00;;
14373;SDS011;7270;49.004;12.066;2023-04-15T02:15:22;1.10;;;1.10;;
14373;SDS011;7270;49.004;12.066;2023-04-15T02:17:50;1.10;;;1.10;;
14373;SDS011;7270;49.004;12.066;2023-04-15T02:20:19;1.10;;;1.10;;
14373;SDS011;7270;49.004;12.066;2023-04-15T02:22:46;1.20;;;1.20;;
14373;SDS011;7270;49.004;12.066;2023-04-15T02:25:12;1.10;;;1.10;;
14373;SDS011;7270;49.004;12.066;2023-04-15T02:27:40;1.23;;;1.23;;
14373;SDS011;7270;49.004;12.066;2023-04-15T02:30:07;1.20;;;1.20;;
14373;SDS011;7270;49.004;12.066;2023-04-15T02:32:33;1.10;;;1.10;;
14373;SDS011;7270;49.004;12.066;2023-04-15T02:35:03;1.10;;;1.10;;
14373;SDS011;7270;49.004;12.066;2023-04-15T02:37:30;1.10;;;1.10;;
14373;SDS011;7270;49.004;12.066;2023-04-15T02:39:59;1.10;;;1.10;;
14373;SDS011;7270;49.004;12.066;2023-04-15T02:42:26;1.20;;;1.20;;
14373;SDS011;7270;49.004;12.066;2023-04-15T02:44:54;1.23;;;1.23;;
14373;SDS011;7270;49.004;12.066;2023-04-15T02:47:20;1.10;;;1.10;;
14373;SDS011;7270;49.004;12.066;2023-04-15T02:49:47;1.00;;;1.00;;
14373;SDS011;7270;49.004;12.066;2023-04-15T02:52:15;1.03;;;1.03;;
14373;SDS011;7270;49.004;12.066;2023-04-15T02:54:41;1.10;;;1.10;;
14373;SDS011;7270;49.004;12.066;2023-04-15T02:57:07;1.20;;;1.20;;
14373;SDS011;7270;49.004;12.066;2023-04-15T02:59:35;1.00;;;1.00;;
14373;SDS011;7270;49.004;12.066;2023-04-15T03:02:03;1.20;;;1.20;;
14373;SDS011;7270;49.004;12.066;2023-04-15T03:04:31;1.00;;;1.00;;
14373;SDS011;7270;49.004;12.066;2023-04-15T03:06:58;1.10;;;1.10;;
14373;SDS011;7270;49.004;12.066;2023-04-15T03:09:26;1.10;;;1.10;;
14373;SDS011;7270;49.004;12.066;2023-04-15T03:11:52;1.10;;;1.10;;
14373;SDS011;7270;49.004;12.066;2023-04-15T03:14:19;1.20;;;1.20;;
14373;SDS011;7270;49.004;12.066;2023-04-15T03:16:45;1.10;;;1.10;;
14373;SDS011;7270;49.004;12.066;2023-04-15T03:19:11;1.30;;;1.20;;
14373;SDS011;7270;49.004;12.066;2023-04-15T03:21:38;1.40;;;1.30;;
14373;SDS011;7270;49.004;12.066;2023-04-15T03:24:04;1.10;;;1.10;;
14373;SDS011;7270;49.004;12.066;2023-04-15T03:26:32;1.40;;;1.30;;
14373;SDS011;7270;49.004;12.066;2023-04-15T03:28:58;1.30;;;1.20;;
14373;SDS011;7270;49.004;12.066;2023-04-15T03:31:25;1.40;;;1.30;;
14373;SDS011;7270;49.004;12.066;2023-04-15T03:33:51;1.40;;;1.30;;
14373;SDS011;7270;49.004;12.066;2023-04-15T03:36:17;1.40;;;1.30;;
14373;SDS011;7270;49.004;12.066;2023-04-15T03:38:44;1.40;;;1.30;;
14373;SDS011;7270;49.004;12.066;2023-04-15T03:41:10;1.13;;;1.13;;
14373;SDS011;7270;49.004;12.066;2023-04-15T03:43:38;1.30;;;1.20;;
14373;SDS011;7270;49.004;12.066;2023-04-15T03:46:04;1.40;;;1.30;;
14373;SDS011;7270;49.004;12.066;2023-04-15T03:48:31;1.50;;;1.40;;
14373;SDS011;7270;49.004;12.066;2023-04-15T03:50:57;1.40;;;1.30;;
14373;SDS011;7270;49.004;12.066;2023-04-15T03:53:23;1.60;;;1.50;;
14373;SDS011;7270;49.004;12.066;2023-04-15T03:55:49;1.43;;;1.37;;
14373;SDS011;7270;49.004;12.066;2023-04-15T03:58:16;1.40;;;1.30;;
14373;SDS011;7270;49.004;12.066;2023-04-15T04:00:44;1.60;;;1.50;;
14373;SDS011;7270;49.004;12.066;2023-04-15T04:03:10;1.50;;;1.40;;
14373;SDS011;7270;49.004;12.066;2023-04-15T04:05:37;1.50;;;1.40;;
14373;SDS011;7270;49.004;12.066;2023-04-15T04:08:05;1.50;;;1.40;;
14373;SDS011;7270;49.004;12.066;2023-04-15T04:10:32;1.60;;;1.50;;
14373;SDS011;7270;49.004;12.066;2023-04-15T04:12:58;1.30;;;1.20;;
14373;SDS011;7270;49.004;12.066;2023-04-15T04:15:24;1.60;;;1.50;;
14373;SDS011;7270;49.004;12.066;2023-04-15T04:17:52;1.60;;;1.50;;
14373;SDS011;7270;49.004;12.066;2023-04-15T04:20:18;1.60;;;1.50;;
14373;SDS011;7270;49.004;12.066;2023-04-15T04:22:45;1.50;;;1.40;;
14373;SDS011;7270;49.004;12.066;2023-04-15T04:25:11;1.50;;;1.40;;
14373;SDS011;7270;49.004;12.066;2023-04-15T04:27:38;1.80;;;1.70;;
14373;SDS011;7270;49.004;12.066;2023-04-15T04:30:05;1.60;;;1.50;;
14373;SDS011;7270;49.004;12.066;2023-04-15T04:32:32;1.60;;;1.50;;
14373;SDS011;7270;49.004;12.066;2023-04-15T04:34:59;1.60;;;1.50;;
14373;SDS011;7270;49.004;12.066;2023-04-15T04:37:26;1.50;;;1.40;;
14373;SDS011;7270;49.004;12.066;2023-04-15T04:39:52;1.60;;;1.50;;
14373;SDS011;7270;49.004;12.066;2023-04-15T04:42:18;1.60;;;1.50;;
14373;SDS011;7270;49.004;12.066;2023-04-15T04:44:45;1.60;;;1.50;;
14373;SDS011;7270;49.004;12.066;2023-04-15T04:47:11;1.60;;;1.50;;
14373;SDS011;7270;49.004;12.066;2023-04-15T04:49:38;1.50;;;1.40;;
14373;SDS011;7270;49.004;12.066;2023-04-15T04:52:06;1.50;;;1.40;;
14373;SDS011;7270;49.004;12.066;2023-04-15T04:54:33;1.67;;;1.57;;
14373;SDS011;7270;49.004;12.066;2023-04-15T04:56:59;1.60;;;1.50;;
14373;SDS011;7270;49.004;12.066;2023-04-15T04:59:25;1.60;;;1.50;;
14373;SDS011;7270;49.004;12.066;2023-04-15T05:01:52;1.60;;;1.50;;
14373;SDS011;7270;49.004;12.066;2023-04-15T05:04:18;1.60;;;1.50;;
14373;SDS011;7270;49.004;12.066;2023-04-15T05:06:44;1.40;;;1.30;;
14373;SDS011;7270;49.004;12.066;2023-04-15T05:09:12;1.70;;;1.60;;
14373;SDS011;7270;49.004;12.066;2023-04-15T05:11:38;1.70;;;1.60;;
14373;SDS011;7270;49.004;12.066;2023-04-15T05:14:04;1.70;;;1.60;;
14373;SDS011;7270;49.004;12.066;2023-04-15T05:16:31;1.70;;;1.60;;
14373;SDS011;7270;49.004;12.066;2023-04-15T05:18:58;1.70;;;1.60;;
14373;SDS011;7270;49.004;12.066;2023-04-15T05:21:24;1.70;;;1.60;;
14373;SDS011;7270;49.004;12.066;2023-04-15T05:23:51;1.50;;;1.40;;
14373;SDS011;7270;49.004;12.066;2023-04-15T05:26:19;1.70;;;1.60;;
14373;SDS011;7270;49.004;12.066;2023-04-15T05:28:46;1.73;;;1.63;;
14373;SDS011;7270;49.004;12.066;2023-04-15T05:31:12;1.70;;;1.60;;
14373;SDS011;7270;49.004;12.066;2023-04-15T05:33:38;1.60;;;1.50;;
14373;SDS011;7270;49.004;12.066;2023-04-15T05:36:05;1.70;;;1.60;;
14373;SDS011;7270;49.004;12.066;2023-04-15T05:38:36;1.70;;;1.60;;
14373;SDS011;7270;49.004;12.066;2023-04-15T05:41:02;1.80;;;1.70;;
14373;SDS011;7270;49.004;12.066;2023-04-15T05:43:30;1.80;;;1.70;;
14373;SDS011;7270;49.004;12.066;2023-04-15T05:45:56;1.83;;;1.73;;
14373;SDS011;7270;49.004;12.066;2023-04-15T05:48:23;1.80;;;1.70;;
14373;SDS011;7270;49.004;12.066;2023-04-15T05:50:49;2.10;;;2.00;;
14373;SDS011;7270;49.004;12.066;2023-04-15T05:53:15;1.90;;;1.80;;
14373;SDS011;7270;49.004;12.066;2023-04-15T05:55:41;1.90;;;1.80;;
14373;SDS011;7270;49.004;12.066;2023-04-15T05:58:08;1.70;;;1.60;;
14373;SDS011;7270;49.004;12.066;2023-04-15T06:00:35;1.80;;;1.70;;
14373;SDS011;7270;49.004;12.066;2023-04-15T06:03:02;2.00;;;1.90;;
14373;SDS011;7270;49.004;12.066;2023-04-15T06:05:29;1.90;;;1.80;;
14373;SDS011;7270;49.004;12.066;2023-04-15T06:07:55;1.80;;;1.70;;
14373;SDS011;7270;49.004;12.066;2023-04-15T06:10:21;1.70;;;1.60;;
14373;SDS011;7270;49.004;12.066;2023-04-15T06:12:48;1.70;;;1.60;;
14373;SDS011;7270;49.004;12.066;2023-04-15T06:15:14;1.70;;;1.60;;
14373;SDS011;7270;49.004;12.066;2023-04-15T06:17:42;1.60;;;1.50;;
14373;SDS011;7270;49.004;12.066;2023-04-15T06:20:09;1.70;;;1.60;;
14373;SDS011;7270;49.004;12.066;2023-04-15T06:22:35;1.60;;;1.50;;
14373;SDS011;7270;49.004;12.066;2023-04-15T06:25:03;1.70;;;1.60;;
14373;SDS011;7270;49.004;12.066;2023-04-15T06:27:30;1.70;;;1.60;;
14373;SDS011;7270;49.004;12.066;2023-04-15T06:29:56;1.80;;;1.70;;
14373;SDS011;7270;49.004;12.066;2023-04-15T06:32:22;1.80;;;1.70;;
14373;SDS011;7270;49.004;12.066;2023-04-15T06:34:50;1.73;;;1.63;;
14373;SDS011;7270;49.004;12.066;2023-04-15T06:37:16;1.87;;;1.77;;
14373;SDS011;7270;49.004;12.066;2023-04-15T06:39:42;1.70;;;1.60;;
14373;SDS011;7270;49.004;12.066;2023-04-15T06:42:09;1.60;;;1.50;;
14373;SDS011;7270;49.004;12.066;2023-04-15T06:44:37;1.80;;;1.70;;
14373;SDS011;7270;49.004;12.066;2023-04-15T06:47:04;1.60;;;1.50;;
14373;SDS011;7270;49.004;12.066;2023-04-15T06:49:30;1.60;;;1.50;;
14373;SDS011;7270;49.004;12.066;2023-04-15T06:51:59;1.60;;;1.50;;
14373;SDS011;7270;49.004;12.066;2023-04-15T06:54:25;1.70;;;1.60;;
14373;SDS011;7270;49.004;12.066;2023-04-15T06:56:52;1.70;;;1.60;;
14373;SDS011;7270;49.004;12.066;2023-04-15T06:59:18;1.60;;;1.50;;
14373;SDS011;7270;49.004;12.066;2023-04-15T07:01:44;1.80;;;1.70;;
14373;SDS011;7270;49.004;12.066;2023-04-15T07:04:11;1.60;;;1.50;;
14373;SDS011;7270;49.004;12.066;2023-04-15T07:06:37;1.70;;;1.60;;
14373;SDS011;7270;49.004;12.066;2023-04-15T07:09:05;1.70;;;1.60;;
14373;SDS011;7270;49.004;12.066;2023-04-15T07:11:31;1.70;;;1.60;;
14373;SDS011;7270;49.004;12.066;2023-04-15T07:13:57;1.60;;;1.50;;
14373;SDS011;7270;49.004;12.066;2023-04-15T07:16:24;1.60;;;1.50;;
14373;SDS011;7270;49.004;12.066;2023-04-15T07:18:50;1.60;;;1.50;;
14373;SDS011;7270;49.004;12.066;2023-04-15T07:21:16;1.50;;;1.40;;
14373;SDS011;7270;49.004;12.066;2023-04-15T07:23:43;1.60;;;1.50;;
14373;SDS011;7270;49.004;12.066;2023-04-15T07:26:10;1.60;;;1.50;;
14373;SDS011;7270;49.004;12.066;2023-04-15T07:28:37;1.60;;;1.50;;
14373;SDS011;7270;49.004;12.066;2023-04-15T07:31:03;1.60;;;1.50;;
14373;SDS011;7270;49.004;12.066;2023-04-15T07:33:29;1.50;;;1.40;;
14373;SDS011;7270;49.004;12.066;2023-04-15T07:35:56;1.60;;;1.50;;
14373;SDS011;7270;49.004;12.066;2023-04-15T07:38:22;1.70;;;1.60;;
14373;SDS011;7270;49.004;12.066;2023-04-15T07:40:48;1.60;;;1.50;;
14373;SDS011;7270;49.004;12.066;2023-04-15T07:43:16;1.60;;;1.50;;
14373;SDS011;7270;49.004;12.066;2023-04-15T07:45:44;1.73;;;1.63;;
14373;SDS011;7270;49.004;12.066;2023-04-15T07:48:10;1.60;;;1.50;;
14373;SDS011;7270;49.004;12.066;2023-04-15T07:50:37;1.53;;;1.43;;
14373;SDS011;7270;49.004;12.066;2023-04-15T07:53:03;1.40;;;1.37;;
14373;SDS011;7270;49.004;12.066;2023-04-15T07:55:30;1.60;;;1.50;;
14373;SDS011;7270;49.004;12.066;2023-04-15T07:57:56;1.60;;;1.50;;
14373;SDS011;7270;49.004;12.066;2023-04-15T08:00:24;1.70;;;1.60;;
14373;SDS011;7270;49.004;12.066;2023-04-15T08:02:50;1.70;;;1.60;;
14373;SDS011;7270;49.004;12.066;2023-04-15T08:05:17;1.70;;;1.60;;
14373;SDS011;7270;49.004;12.066;2023-04-15T08:07:44;1.60;;;1.50;;
14373;SDS011;7270;49.004;12.066;2023-04-15T08:10:10;1.60;;;1.50;;
14373;SDS011;7270;49.004;12.066;2023-04-15T08:12:37;1.60;;;1.50;;
14373;SDS011;7270;49.004;12.066;2023-04-15T08:15:03;1.53;;;1.43;;
14373;SDS011;7270;49.004;12.066;2023-04-15T08:17:32;1.70;;;1.60;;
14373;SDS011;7270;49.004;12.066;2023-04-15T08:19:58;1.60;;;1.50;;
14373;SDS011;7270;49.004;12.066;2023-04-15T08:22:24;1.80;;;1.70;;
14373;SDS011;7270;49.004;12.066;2023-04-15T08:24:51;1.70;;;1.60;;
14373;SDS011;7270;49.004;12.066;2023-04-15T08:27:17;1.60;;;1.50;;
14373;SDS011;7270;49.004;12.066;2023-04-15T08:29:44;1.60;;;1.50;;
14373;SDS011;7270;49.004;12.066;2023-04-15T08:32:11;1.70;;;1.60;;
14373;SDS011;7270;49.004;12.066;2023-04-15T08:34:38;1.80;;;1.70;;
14373;SDS011;7270;49.004;12.066;2023-04-15T08:37:05;1.60;;;1.50;;
14373;SDS011;7270;49.004;12.066;2023-04-15T08:39:31;1.70;;;1.60;;
14373;SDS011;7270;49.004;12.066;2023-04-15T08:41:59;1.60;;;1.50;;
14373;SDS011;7270;49.004;12.066;2023-04-15T08:44:27;1.70;;;1.60;;
14373;SDS011;7270;49.004;12.066;2023-04-15T08:46:54;1.50;;;1.40;;
14373;SDS011;7270;49.004;12.066;2023-04-15T08:49:21;1.50;;;1.40;;
14373;SDS011;7270;49.004;12.066;2023-04-15T08:51:53;1.50;;;1.40;;
14373;SDS011;7270;49.004;12.066;2023-04-15T08:54:20;1.70;;;1.60;;
14373;SDS011;7270;49.004;12.066;2023-04-15T08:56:47;1.50;;;1.40;;
14373;SDS011;7270;49.004;12.066;2023-04-15T08:59:13;1.60;;;1.50;;
14373;SDS011;7270;49.004;12.066;2023-04-15T09:01:40;1.60;;;1.50;;
14373;SDS011;7270;49.004;12.066;2023-04-15T09:04:07;1.60;;;1.50;;
14373;SDS011;7270;49.004;12.066;2023-04-15T09:06:33;1.60;;;1.50;;
14373;SDS011;7270;49.004;12.066;2023-04-15T09:09:01;1.60;;;1.50;;
14373;SDS011;7270;49.004;12.066;2023-04-15T09:11:28;1.60;;;1.50;;
14373;SDS011;7270;49.004;12.066;2023-04-15T09:13:55;1.50;;;1.40;;
14373;SDS011;7270;49.004;12.066;2023-04-15T09:16:21;1.60;;;1.50;;
14373;SDS011;7270;49.004;12.066;2023-04-15T09:18:48;1.60;;;1.50;;
14373;SDS011;7270;49.004;12.066;2023-04-15T09:21:15;1.60;;;1.50;;
14373;SDS011;7270;49.004;12.066;2023-04-15T09:23:54;1.70;;;1.60;;
14373;SDS011;7270;49.004;12.066;2023-04-15T09:26:30;1.60;;;1.50;;
14373;SDS011;7270;49.004;12.066;2023-04-15T09:29:01;1.77;;;1.67;;
14373;SDS011;7270;49.004;12.066;2023-04-15T09:31:28;1.50;;;1.40;;
14373;SDS011;7270;49.004;12.066;2023-04-15T09:33:55;1.50;;;1.40;;
14373;SDS011;7270;49.004;12.066;2023-04-15T09:36:21;1.60;;;1.50;;
14373;SDS011;7270;49.004;12.066;2023-04-15T09:38:53;1.50;;;1.40;;
14373;SDS011;7270;49.004;12.066;2023-04-15T09:41:20;1.50;;;1.40;;
14373;SDS011;7270;49.004;12.066;2023-04-15T09:43:47;1.60;;;1.50;;
14373;SDS011;7270;49.004;12.066;2023-04-15T09:46:14;1.50;;;1.40;;
14373;SDS011;7270;49.004;12.066;2023-04-15T09:48:40;1.60;;;1.50;;
14373;SDS011;7270;49.004;12.066;2023-04-15T09:51:06;1.80;;;1.70;;
14373;SDS011;7270;49.004;12.066;2023-04-15T09:53:33;1.50;;;1.40;;
14373;SDS011;7270;49.004;12.066;2023-04-15T09:56:00;1.70;;;1.60;;
14373;SDS011;7270;49.004;12.066;2023-04-15T09:58:27;1.50;;;1.40;;
14373;SDS011;7270;49.004;12.066;2023-04-15T10:00:55;1.60;;;1.50;;
14373;SDS011;7270;49.004;12.066;2023-04-15T10:03:22;1.60;;;1.50;;
14373;SDS011;7270;49.004;12.066;2023-04-15T10:05:49;1.70;;;1.60;;
14373;SDS011;7270;49.004;12.066;2023-04-15T10:08:17;1.70;;;1.60;;
14373;SDS011;7270;49.004;12.066;2023-04-15T10:10:44;1.70;;;1.60;;
14373;SDS011;7270;49.004;12.066;2023-04-15T10:13:11;1.50;;;1.40;;
14373;SDS011;7270;49.004;12.066;2023-04-15T10:15:38;1.50;;;1.40;;
14373;SDS011;7270;49.004;12.066;2023-04-15T10:18:06;1.60;;;1.50;;
14373;SDS011;7270;49.004;12.066;2023-04-15T10:20:33;1.50;;;1.40;;
14373;SDS011;7270;49.004;12.066;2023-04-15T10:23:00;1.50;;;1.40;;
14373;SDS011;7270;49.004;12.066;2023-04-15T10:25:27;1.60;;;1.50;;
14373;SDS011;7270;49.004;12.066;2023-04-15T10:27:53;1.43;;;1.33;;
14373;SDS011;7270;49.004;12.066;2023-04-15T10:30:21;1.50;;;1.40;;
14373;SDS011;7270;49.004;12.066;2023-04-15T10:32:47;1.60;;;1.50;;
14373;SDS011;7270;49.004;12.066;2023-04-15T10:35:16;1.60;;;1.50;;
14373;SDS011;7270;49.004;12.066;2023-04-15T10:37:42;1.70;;;1.60;;
14373;SDS011;7270;49.004;12.066;2023-04-15T10:40:22;1.50;;;1.40;;
14373;SDS011;7270;49.004;12.066;2023-04-15T10:42:48;1.60;;;1.50;;
14373;SDS011;7270;49.004;12.066;2023-04-15T10:45:15;1.60;;;1.50;;
14373;SDS011;7270;49.004;12.066;2023-04-15T10:47:42;1.50;;;1.40;;
14373;SDS011;7270;49.004;12.066;2023-04-15T10:50:09;1.50;;;1.40;;
14373;SDS011;7270;49.004;12.066;2023-04-15T10:52:39;1.50;;;1.40;;
14373;SDS011;7270;49.004;12.066;2023-04-15T10:55:11;1.50;;;1.40;;
14373;SDS011;7270;49.004;12.066;2023-04-15T10:57:38;1.40;;;1.30;;
14373;SDS011;7270;49.004;12.066;2023-04-15T11:00:11;1.40;;;1.30;;
14373;SDS011;7270;49.004;12.066;2023-04-15T11:02:42;1.20;;;1.20;;
14373;SDS011;7270;49.004;12.066;2023-04-15T11:05:09;1.10;;;1.10;;
14373;SDS011;7270;49.004;12.066;2023-04-15T11:07:37;1.10;;;1.10;;
14373;SDS011;7270;49.004;12.066;2023-04-15T11:10:49;0.90;;;0.90;;
14373;SDS011;7270;49.004;12.066;2023-04-15T11:13:01;1.10;;;1.10;;
14373;SDS011;7270;49.004;12.066;2023-04-15T11:15:28;1.00;;;1.00;;
14373;SDS011;7270;49.004;12.066;2023-04-15T11:17:55;1.10;;;1.10;;
14373;SDS011;7270;49.004;12.066;2023-04-15T11:20:22;1.10;;;1.10;;
14373;SDS011;7270;49.004;12.066;2023-04-15T11:22:50;1.10;;;1.10;;
14373;SDS011;7270;49.004;12.066;2023-04-15T11:25:23;1.13;;;1.13;;
14373;SDS011;7270;49.004;12.066;2023-04-15T11:27:50;1.10;;;1.10;;
14373;SDS011;7270;49.004;12.066;2023-04-15T11:30:17;1.20;;;1.20;;
14373;SDS011;7270;49.004;12.066;2023-04-15T11:32:44;1.10;;;1.10;;
14373;SDS011;7270;49.004;12.066;2023-04-15T11:35:10;1.20;;;1.20;;
14373;SDS011;7270;49.004;12.066;2023-04-15T11:37:36;1.10;;;1.10;;
14373;SDS011;7270;49.004;12.066;2023-04-15T11:40:05;1.10;;;1.10;;
14373;SDS011;7270;49.004;12.066;2023-04-15T11:42:31;1.10;;;1.10;;
14373;SDS011;7270;49.004;12.066;2023-04-15T11:45:05;1.10;;;1.10;;
14373;SDS011;7270;49.004;12.066;2023-04-15T11:47:31;1.13;;;1.13;;
14373;SDS011;7270;49.004;12.066;2023-04-15T11:50:12;1.00;;;1.00;;
14373;SDS011;7270;49.004;12.066;2023-04-15T11:52:38;1.00;;;1.00;;
14373;SDS011;7270;49.004;12.066;2023-04-15T11:55:06;1.10;;;1.10;;
14373;SDS011;7270;49.004;12.066;2023-04-15T11:57:33;1.10;;;1.10;;
14373;SDS011;7270;49.004;12.066;2023-04-15T12:00:00;1.10;;;1.10;;
14373;SDS011;7270;49.004;12.066;2023-04-15T12:02:29;1.10;;;1.10;;
14373;SDS011;7270;49.004;12.066;2023-04-15T12:05:01;1.10;;;1.10;;
14373;SDS011;7270;49.004;12.066;2023-04-15T12:07:27;0.90;;;0.90;;
14373;SDS011;7270;49.004;12.066;2023-04-15T12:09:54;0.93;;;0.93;;
14373;SDS011;7270;49.004;12.066;2023-04-15T12:12:22;0.90;;;0.90;;
14373;SDS011;7270;49.004;12.066;2023-04-15T12:14:51;0.90;;;0.90;;
14373;SDS011;7270;49.004;12.066;2023-04-15T12:17:18;0.90;;;0.90;;
14373;SDS011;7270;49.004;12.066;2023-04-15T12:19:44;0.93;;;0.93;;
14373;SDS011;7270;49.004;12.066;2023-04-15T12:22:12;0.90;;;0.90;;
14373;SDS011;7270;49.004;12.066;2023-04-15T12:24:40;0.90;;;0.90;;
14373;SDS011;7270;49.004;12.066;2023-04-15T12:27:08;1.00;;;1.00;;
14373;SDS011;7270;49.004;12.066;2023-04-15T12:29:37;0.90;;;0.90;;
14373;SDS011;7270;49.004;12.066;2023-04-15T12:32:04;0.90;;;0.90;;
14373;SDS011;7270;49.004;12.066;2023-04-15T12:34:32;1.00;;;1.00;;
14373;SDS011;7270;49.004;12.066;2023-04-15T12:36:59;0.90;;;0.90;;
14373;SDS011;7270;49.004;12.066;2023-04-15T12:39:26;0.93;;;0.93;;
14373;SDS011;7270;49.004;12.066;2023-04-15T12:41:52;0.90;;;0.90;;
14373;SDS011;7270;49.004;12.066;2023-04-15T12:44:21;0.90;;;0.90;;
14373;SDS011;7270;49.004;12.066;2023-04-15T12:46:49;1.10;;;1.10;;
14373;SDS011;7270;49.004;12.066;2023-04-15T12:49:16;1.10;;;1.10;;
14373;SDS011;7270;49.004;12.066;2023-04-15T12:51:44;1.00;;;1.00;;
14373;SDS011;7270;49.004;12.066;2023-04-15T12:54:11;1.10;;;1.10;;
14373;SDS011;7270;49.004;12.066;2023-04-15T12:56:37;0.97;;;0.97;;
14373;SDS011;7270;49.004;12.066;2023-04-15T12:59:03;1.10;;;1.10;;
14373;SDS011;7270;49.004;12.066;2023-04-15T13:01:30;1.10;;;1.10;;
14373;SDS011;7270;49.004;12.066;2023-04-15T13:03:58;1.20;;;1.20;;
14373;SDS011;7270;49.004;12.066;2023-04-15T13:06:24;1.10;;;1.10;;
14373;SDS011;7270;49.004;12.066;2023-04-15T13:08:50;1.30;;;1.20;;
14373;SDS011;7270;49.004;12.066;2023-04-15T13:11:19;1.20;;;1.20;;
14373;SDS011;7270;49.004;12.066;2023-04-15T13:13:45;1.20;;;1.20;;
14373;SDS011;7270;49.004;12.066;2023-04-15T13:16:11;1.10;;;1.10;;
14373;SDS011;7270;49.004;12.066;2023-04-15T13:18:38;1.10;;;1.10;;
14373;SDS011;7270;49.004;12.066;2023-04-15T13:21:06;1.10;;;1.10;;
14373;SDS011;7270;49.004;12.066;2023-04-15T13:23:32;1.00;;;1.00;;
14373;SDS011;7270;49.004;12.066;2023-04-15T13:25:58;1.10;;;1.10;;
14373;SDS011;7270;49.004;12.066;2023-04-15T13:28:25;1.10;;;1.10;;
14373;SDS011;7270;49.004;12.066;2023-04-15T13:30:51;1.10;;;1.10;;
14373;SDS011;7270;49.004;12.066;2023-04-15T13:33:17;1.10;;;1.10;;
14373;SDS011;7270;49.004;12.066;2023-04-15T13:35:43;1.10;;;1.10;;
14373;SDS011;7270;49.004;12.066;2023-04-15T13:38:11;1.13;;;1.13;;
14373;SDS011;7270;49.004;12.066;2023-04-15T13:40:38;1.13;;;1.13;;
14373;SDS011;7270;49.004;12.066;2023-04-15T13:43:04;1.20;;;1.20;;
14373;SDS011;7270;49.004;12.066;2023-04-15T13:45:31;1.10;;;1.10;;
14373;SDS011;7270;49.004;12.066;2023-04-15T13:47:58;1.20;;;1.20;;
14373;SDS011;7270;49.004;12.066;2023-04-15T13:50:24;1.00;;;1.00;;
14373;SDS011;7270;49.004;12.066;2023-04-15T13:52:50;1.10;;;1.10;;
14373;SDS011;7270;49.004;12.066;2023-04-15T13:55:18;1.00;;;1.00;;
14373;SDS011;7270;49.004;12.066;2023-04-15T13:57:44;1.10;;;1.10;;
14373;SDS011;7270;49.004;12.066;2023-04-15T14:00:11;1.10;;;1.10;;
14373;SDS011;7270;49.004;12.066;2023-04-15T14:02:38;1.00;;;1.00;;
14373;SDS011;7270;49.004;12.066;2023-04-15T14:05:05;1.17;;;1.17;;
14373;SDS011;7270;49.004;12.066;2023-04-15T14:07:31;1.10;;;1.10;;
14373;SDS011;7270;49.004;12.066;2023-04-15T14:09:58;1.10;;;1.10;;
14373;SDS011;7270;49.004;12.066;2023-04-15T14:12:26;1.10;;;1.10;;
14373;SDS011;7270;49.004;12.066;2023-04-15T14:14:52;0.90;;;0.90;;
14373;SDS011;7270;49.004;12.066;2023-04-15T14:17:18;1.10;;;1.10;;
14373;SDS011;7270;49.004;12.066;2023-04-15T14:19:45;1.10;;;1.10;;
14373;SDS011;7270;49.004;12.066;2023-04-15T14:22:11;1.00;;;1.00;;
14373;SDS011;7270;49.004;12.066;2023-04-15T14:24:37;1.00;;;1.00;;
14373;SDS011;7270;49.004;12.066;2023-04-15T14:27:05;0.93;;;0.93;;
14373;SDS011;7270;49.004;12.066;2023-04-15T14:29:34;1.10;;;1.10;;
14373;SDS011;7270;49.004;12.066;2023-04-15T14:32:00;1.10;;;1.10;;
14373;SDS011;7270;49.004;12.066;2023-04-15T14:34:26;1.10;;;1.10;;
14373;SDS011;7270;49.004;12.066;2023-04-15T14:36:52;1.10;;;1.10;;
14373;SDS011;7270;49.004;12.066;2023-04-15T14:39:19;1.20;;;1.20;;
14373;SDS011;7270;49.004;12.066;2023-04-15T14:41:45;1.10;;;1.10;;
14373;SDS011;7270;49.004;12.066;2023-04-15T14:44:12;1.10;;;1.10;;
14373;SDS011;7270;49.004;12.066;2023-04-15T14:46:39;1.10;;;1.10;;